createdAt,value
2018-11-05T00:01:52.497Z,7.40
2018-11-05T00:04:21.004Z,7.40
2018-11-05T00:06:49.489Z,7.40
2018-11-05T00:09:17.967Z,7.40
2018-11-05T00:11:46.465Z,7.40
2018-11-05T00:14:14.965Z,7.40
2018-11-05T00:16:43.487Z,7.50
2018-11-05T00:19:11.997Z,7.50
2018-11-05T00:21:41.487Z,7.50
2018-11-05T00:24:09.963Z,7.50
2018-11-05T00:26:38.459Z,7.50
2018-11-05T00:29:07.615Z,7.50
2018-11-05T00:31:36.218Z,7.50
2018-11-05T00:34:04.912Z,7.40
2018-11-05T00:36:33.407Z,7.40
2018-11-05T00:39:01.955Z,7.40
2018-11-05T00:41:30.570Z,7.40
2018-11-05T00:43:59.045Z,7.30
2018-11-05T00:46:27.574Z,7.40
2018-11-05T00:48:56.129Z,7.30
2018-11-05T00:51:24.691Z,7.30
2018-11-05T00:53:53.271Z,7.30
2018-11-05T00:56:21.929Z,7.30
2018-11-05T00:58:50.679Z,7.30
2018-11-05T01:01:19.258Z,7.30
2018-11-05T01:03:47.784Z,7.30
2018-11-05T01:06:16.309Z,7.30
2018-11-05T01:08:45.119Z,7.20
2018-11-05T01:11:13.626Z,7.20
2018-11-05T01:13:43.100Z,7.20
2018-11-05T01:16:11.580Z,7.20
2018-11-05T01:18:40.250Z,7.30
2018-11-05T01:21:08.751Z,7.20
2018-11-05T01:23:37.252Z,7.20
2018-11-05T01:26:05.779Z,7.20
2018-11-05T01:28:34.416Z,7.20
2018-11-05T01:31:02.911Z,7.20
2018-11-05T01:33:31.391Z,7.10
2018-11-05T01:35:59.898Z,7.00
2018-11-05T01:38:28.361Z,7.00
2018-11-05T01:40:56.898Z,7.00
2018-11-05T01:43:25.483Z,7.00
2018-11-05T01:45:53.950Z,7.00
2018-11-05T01:48:22.447Z,7.00
2018-11-05T01:50:51.029Z,7.00
2018-11-05T01:53:19.538Z,7.00
2018-11-05T01:55:48.049Z,7.00
2018-11-05T01:58:16.554Z,7.00
2018-11-05T02:00:45.161Z,7.00
2018-11-05T02:03:13.725Z,6.90
2018-11-05T02:05:42.229Z,6.90
2018-11-05T02:08:10.746Z,6.80
2018-11-05T02:10:39.304Z,6.80
2018-11-05T02:13:07.853Z,6.70
2018-11-05T02:15:36.399Z,6.70
2018-11-05T02:18:04.987Z,6.70
2018-11-05T02:20:33.558Z,6.70
2018-11-05T02:23:02.047Z,6.70
2018-11-05T02:25:30.548Z,6.70
2018-11-05T02:27:59.106Z,6.70
2018-11-05T02:30:27.695Z,6.70
2018-11-05T02:32:56.177Z,6.70
2018-11-05T02:35:24.674Z,6.70
2018-11-05T02:37:53.156Z,6.70
2018-11-05T02:40:21.925Z,6.70
2018-11-05T02:42:50.921Z,6.70
2018-11-05T02:45:20.436Z,6.70
2018-11-05T02:47:49.019Z,6.80
2018-11-05T02:50:17.809Z,6.80
2018-11-05T02:52:47.027Z,6.80
2018-11-05T02:55:15.508Z,6.80
2018-11-05T02:57:44.181Z,6.80
2018-11-05T03:00:15.873Z,6.90
2018-11-05T03:02:44.418Z,6.80
2018-11-05T03:05:14.226Z,6.80
2018-11-05T03:07:43.517Z,6.80
2018-11-05T03:10:12.632Z,6.70
2018-11-05T03:12:41.837Z,6.70
2018-11-05T03:15:12.205Z,6.80
2018-11-05T03:17:40.691Z,6.80
2018-11-05T03:20:12.337Z,6.80
2018-11-05T03:22:41.429Z,6.80
2018-11-05T03:25:10.697Z,6.90
2018-11-05T03:27:39.587Z,6.90
2018-11-05T03:30:16.161Z,6.90
2018-11-05T03:32:44.734Z,6.90
2018-11-05T03:35:13.947Z,6.90
2018-11-05T03:37:43.552Z,7.00
2018-11-05T03:40:13.033Z,7.00
2018-11-05T03:42:42.241Z,7.00
2018-11-05T03:45:14.071Z,7.00
2018-11-05T03:47:42.810Z,7.00
2018-11-05T03:50:13.980Z,6.90
2018-11-05T03:52:43.025Z,6.90
2018-11-05T03:55:11.943Z,6.90
2018-11-05T03:57:40.427Z,6.90
2018-11-05T04:00:10.559Z,6.90
2018-11-05T04:02:39.085Z,6.90
2018-11-05T04:05:07.948Z,7.00
2018-11-05T04:07:37.137Z,7.00
2018-11-05T04:10:06.529Z,7.00
2018-11-05T04:12:35.036Z,7.00
2018-11-05T04:15:03.581Z,7.00
2018-11-05T04:17:32.279Z,7.00
2018-11-05T04:20:00.776Z,7.00
2018-11-05T04:22:29.387Z,7.00
2018-11-05T04:24:57.875Z,7.00
2018-11-05T04:27:27.386Z,7.00
2018-11-05T04:29:55.838Z,7.00
2018-11-05T04:32:24.383Z,7.00
2018-11-05T04:34:52.854Z,7.10
2018-11-05T04:37:21.366Z,7.10
2018-11-05T04:39:49.830Z,7.00
2018-11-05T04:42:18.969Z,7.00
2018-11-05T04:44:47.489Z,7.00
2018-11-05T04:47:15.993Z,7.00
2018-11-05T04:49:44.541Z,7.00
2018-11-05T04:52:13.017Z,7.00
2018-11-05T04:54:41.508Z,7.00
2018-11-05T04:57:10.001Z,7.00
2018-11-05T04:59:38.477Z,6.90
2018-11-05T05:02:07.015Z,6.90
2018-11-05T05:04:35.595Z,6.90
2018-11-05T05:07:04.182Z,6.90
2018-11-05T05:09:32.734Z,6.90
2018-11-05T05:12:01.248Z,6.80
2018-11-05T05:14:29.747Z,6.90
2018-11-05T05:16:58.354Z,6.90
2018-11-05T05:19:26.838Z,6.90
2018-11-05T05:21:55.310Z,6.90
2018-11-05T05:24:23.938Z,6.90
2018-11-05T05:26:52.813Z,7.00
2018-11-05T05:29:21.303Z,7.00
2018-11-05T05:31:49.806Z,7.00
2018-11-05T05:34:18.312Z,7.00
2018-11-05T05:36:46.820Z,7.00
2018-11-05T05:39:15.312Z,7.00
2018-11-05T05:41:43.804Z,7.00
2018-11-05T05:44:12.298Z,7.00
2018-11-05T05:46:40.802Z,7.00
2018-11-05T05:49:09.312Z,7.00
2018-11-05T05:51:37.830Z,6.90
2018-11-05T05:54:06.643Z,7.00
2018-11-05T05:56:35.159Z,6.90
2018-11-05T05:59:03.703Z,6.90
2018-11-05T06:01:32.181Z,7.00
2018-11-05T06:04:00.723Z,6.90
2018-11-05T06:06:29.246Z,6.90
2018-11-05T06:09:03.105Z,6.90
2018-11-05T06:11:31.623Z,6.90
2018-11-05T06:14:00.109Z,6.90
2018-11-05T06:16:28.676Z,6.90
2018-11-05T06:18:57.752Z,6.90
2018-11-05T06:21:26.254Z,6.90
2018-11-05T06:23:54.799Z,7.00
2018-11-05T06:26:23.328Z,7.00
2018-11-05T06:28:51.936Z,7.00
2018-11-05T06:31:20.525Z,7.00
2018-11-05T06:33:49.035Z,7.00
2018-11-05T06:36:17.537Z,7.00
2018-11-05T06:38:46.093Z,7.00
2018-11-05T06:41:14.683Z,7.00
2018-11-05T06:43:43.168Z,6.90
2018-11-05T06:46:13.555Z,6.90
2018-11-05T06:48:42.118Z,6.90
2018-11-05T06:51:10.643Z,6.90
2018-11-05T06:53:39.182Z,6.90
2018-11-05T06:56:07.709Z,6.90
2018-11-05T06:58:36.233Z,6.90
2018-11-05T07:01:05.151Z,6.90
2018-11-05T07:03:33.768Z,6.90
2018-11-05T07:06:02.342Z,6.90
2018-11-05T07:08:30.831Z,6.90
2018-11-05T07:10:59.353Z,6.90
2018-11-05T07:13:27.921Z,6.90
2018-11-05T07:15:56.465Z,6.90
2018-11-05T07:18:25.044Z,6.80
2018-11-05T07:20:53.581Z,6.80
2018-11-05T07:23:22.138Z,6.80
2018-11-05T07:25:54.932Z,6.80
2018-11-05T07:28:23.408Z,6.90
2018-11-05T07:30:51.884Z,6.90
2018-11-05T07:33:21.054Z,6.80
2018-11-05T07:35:49.514Z,6.70
2018-11-05T07:38:18.009Z,6.70
2018-11-05T07:40:47.040Z,6.70
2018-11-05T07:43:15.658Z,6.70
2018-11-05T07:45:44.200Z,6.80
2018-11-05T07:48:12.673Z,6.80
2018-11-05T07:50:42.059Z,6.80
2018-11-05T07:53:10.506Z,6.80
2018-11-05T07:55:39.932Z,6.80
2018-11-05T07:58:08.460Z,6.80
2018-11-05T08:00:42.333Z,6.90
2018-11-05T08:03:10.880Z,6.90
2018-11-05T08:05:39.386Z,7.00
2018-11-05T08:08:08.512Z,7.00
2018-11-05T08:10:37.036Z,7.10
2018-11-05T08:13:05.579Z,7.20
2018-11-05T08:15:34.074Z,7.20
2018-11-05T08:18:02.571Z,7.30
2018-11-05T08:20:31.683Z,7.30
2018-11-05T08:23:00.254Z,7.30
2018-11-05T08:25:29.098Z,7.40
2018-11-05T08:27:57.736Z,7.50
2018-11-05T08:30:26.760Z,7.50
2018-11-05T08:32:55.993Z,7.50
2018-11-05T08:35:24.626Z,7.50
2018-11-05T08:37:53.551Z,7.60
2018-11-05T08:40:24.170Z,7.60
2018-11-05T08:42:53.579Z,7.70
2018-11-05T08:45:24.332Z,7.70
2018-11-05T08:47:52.913Z,7.80
2018-11-05T08:50:22.471Z,7.80
2018-11-05T08:52:50.887Z,7.80
2018-11-05T08:55:21.631Z,7.90
2018-11-05T08:57:50.290Z,7.90
2018-11-05T09:00:24.565Z,8.10
2018-11-05T09:02:53.827Z,8.20
2018-11-05T09:05:22.644Z,8.30
2018-11-05T09:07:52.150Z,8.50
2018-11-05T09:10:20.818Z,8.50
2018-11-05T09:12:49.147Z,8.70
2018-11-05T09:15:19.921Z,8.80
2018-11-05T09:17:48.718Z,8.90
2018-11-05T09:20:18.138Z,9.00
2018-11-05T09:22:47.042Z,9.00
2018-11-05T09:25:16.308Z,9.10
2018-11-05T09:27:44.837Z,9.20
2018-11-05T09:30:16.593Z,9.30
2018-11-05T09:32:46.075Z,9.30
2018-11-05T09:35:14.667Z,9.40
2018-11-05T09:37:43.247Z,9.40
2018-11-05T09:40:15.121Z,9.50
2018-11-05T09:42:44.296Z,9.60
2018-11-05T09:45:15.176Z,9.60
2018-11-05T09:47:44.428Z,9.70
2018-11-05T09:50:13.335Z,9.70
2018-11-05T09:52:41.924Z,9.80
2018-11-05T09:55:11.736Z,9.80
2018-11-05T09:57:40.645Z,9.90
2018-11-05T10:00:14.136Z,10.00
2018-11-05T10:02:47.943Z,10.10
2018-11-05T10:05:16.910Z,10.20
2018-11-05T10:07:45.921Z,10.30
2018-11-05T10:10:15.332Z,10.40
2018-11-05T10:12:44.129Z,10.50
2018-11-05T10:15:13.631Z,10.60
2018-11-05T10:17:42.405Z,10.70
2018-11-05T10:20:13.811Z,10.80
2018-11-05T10:22:42.652Z,10.90
2018-11-05T10:25:12.004Z,11.00
2018-11-05T10:27:40.532Z,11.10
2018-11-05T10:30:12.537Z,11.20
2018-11-05T10:32:41.350Z,11.30
2018-11-05T10:35:09.919Z,11.40
2018-11-05T10:37:38.736Z,11.60
2018-11-05T10:40:10.188Z,11.70
2018-11-05T10:42:38.663Z,11.90
2018-11-05T10:45:08.463Z,12.00
2018-11-05T10:47:37.491Z,12.10
2018-11-05T10:50:06.605Z,12.20
2018-11-05T10:52:35.390Z,12.30
2018-11-05T10:55:04.579Z,12.40
2018-11-05T10:57:33.106Z,12.50
2018-11-05T11:00:01.650Z,12.60
2018-11-05T11:02:35.656Z,12.70
2018-11-05T11:05:04.355Z,12.80
2018-11-05T11:07:32.915Z,12.90
2018-11-05T11:10:01.436Z,13.00
2018-11-05T11:12:29.964Z,13.00
2018-11-05T11:14:58.481Z,13.10
2018-11-05T11:17:27.014Z,13.30
2018-11-05T11:19:55.528Z,13.40
2018-11-05T11:22:24.038Z,13.40
2018-11-05T11:24:52.552Z,13.40
2018-11-05T11:27:21.249Z,13.30
2018-11-05T11:29:49.776Z,13.20
2018-11-05T11:32:18.280Z,13.30
2018-11-05T11:34:46.792Z,13.30
2018-11-05T11:37:15.497Z,13.50
2018-11-05T11:39:43.938Z,13.60
2018-11-05T11:42:12.462Z,13.70
2018-11-05T11:44:40.987Z,13.80
2018-11-05T11:47:09.506Z,13.80
2018-11-05T11:49:38.008Z,13.70
2018-11-05T11:52:06.669Z,13.80
2018-11-05T11:54:35.170Z,13.80
2018-11-05T11:57:03.694Z,13.80
2018-11-05T11:59:32.266Z,13.90
2018-11-05T12:02:06.125Z,13.90
2018-11-05T12:04:34.760Z,14.00
2018-11-05T12:07:03.311Z,14.00
2018-11-05T12:09:31.886Z,14.00
2018-11-05T12:12:00.426Z,14.00
2018-11-05T12:14:28.997Z,14.00
2018-11-05T12:16:57.649Z,14.00
2018-11-05T12:19:26.153Z,14.00
2018-11-05T12:21:54.734Z,14.00
2018-11-05T12:24:23.291Z,14.10
2018-11-05T12:26:52.063Z,14.20
2018-11-05T12:29:21.720Z,14.30
2018-11-05T12:31:50.260Z,14.30
2018-11-05T12:34:18.829Z,14.40
2018-11-05T12:36:48.112Z,14.40
2018-11-05T12:39:17.676Z,14.40
2018-11-05T12:41:46.153Z,14.40
2018-11-05T12:44:14.788Z,14.40
2018-11-05T12:46:46.437Z,14.40
2018-11-05T12:49:15.109Z,14.30
2018-11-05T12:51:43.619Z,14.30
2018-11-05T12:54:12.116Z,14.20
2018-11-05T12:56:40.577Z,14.20
2018-11-05T12:59:15.461Z,14.20
2018-11-05T13:01:43.953Z,14.20
2018-11-05T13:04:12.625Z,14.20
2018-11-05T13:06:41.173Z,14.30
2018-11-05T13:09:10.267Z,14.40
2018-11-05T13:11:38.771Z,14.50
2018-11-05T13:14:07.366Z,14.50
2018-11-05T13:16:36.635Z,14.60
2018-11-05T13:19:05.527Z,14.70
2018-11-05T13:21:34.028Z,14.80
2018-11-05T13:24:02.602Z,14.90
2018-11-05T13:26:31.106Z,14.90
2018-11-05T13:28:59.592Z,14.90
2018-11-05T13:31:28.068Z,14.90
2018-11-05T13:33:56.564Z,14.90
2018-11-05T13:36:25.035Z,14.90
2018-11-05T13:38:53.598Z,15.00
2018-11-05T13:41:22.865Z,15.00
2018-11-05T13:43:51.328Z,15.00
2018-11-05T13:46:20.213Z,15.00
2018-11-05T13:48:49.011Z,15.00
2018-11-05T13:51:16.922Z,14.90
2018-11-05T13:53:45.397Z,14.90
2018-11-05T13:56:14.308Z,14.80
2018-11-05T13:58:43.164Z,14.80
2018-11-05T14:01:12.016Z,14.70
2018-11-05T14:03:40.639Z,14.70
2018-11-05T14:06:09.170Z,14.60
2018-11-05T14:08:37.665Z,14.60
2018-11-05T14:11:06.606Z,14.50
2018-11-05T14:13:35.170Z,14.50
2018-11-05T14:16:03.649Z,14.40
2018-11-05T14:18:32.168Z,14.50
2018-11-05T14:21:00.727Z,14.40
2018-11-05T14:23:29.198Z,14.40
2018-11-05T14:25:57.807Z,14.30
2018-11-05T14:28:26.478Z,14.30
2018-11-05T14:30:54.872Z,14.20
2018-11-05T14:33:23.456Z,14.20
2018-11-05T14:35:52.013Z,14.20
2018-11-05T14:38:23.466Z,14.20
2018-11-05T14:40:52.006Z,14.20
2018-11-05T14:43:20.643Z,14.20
2018-11-05T14:45:49.235Z,14.20
2018-11-05T14:48:17.690Z,14.20
2018-11-05T14:50:46.327Z,14.20
2018-11-05T14:53:14.760Z,14.20
2018-11-05T14:55:43.273Z,14.20
2018-11-05T14:58:11.799Z,14.20
2018-11-05T15:00:40.320Z,14.20
2018-11-05T15:03:09.037Z,14.20
2018-11-05T15:05:37.639Z,14.20
2018-11-05T15:08:06.697Z,14.10
2018-11-05T15:10:35.217Z,14.10
2018-11-05T15:13:03.755Z,14.10
2018-11-05T15:15:32.248Z,14.10
2018-11-05T15:18:01.069Z,14.10
2018-11-05T15:20:29.704Z,14.00
2018-11-05T15:22:59.056Z,14.00
2018-11-05T15:25:27.673Z,14.00
2018-11-05T15:27:56.307Z,14.00
2018-11-05T15:33:03.736Z,13.90
2018-11-05T15:35:32.263Z,13.80
2018-11-05T15:38:00.799Z,13.70
2018-11-05T15:40:29.362Z,13.70
2018-11-05T15:42:57.962Z,13.70
2018-11-05T15:45:26.478Z,13.60
2018-11-05T15:47:54.986Z,13.60
2018-11-05T15:50:23.492Z,13.50
2018-11-05T15:52:52.415Z,13.40
2018-11-05T15:55:20.549Z,13.40
2018-11-05T15:57:49.060Z,13.30
2018-11-05T16:00:21.857Z,13.20
2018-11-05T16:02:51.934Z,13.10
2018-11-05T16:05:20.568Z,13.10
2018-11-05T16:07:49.276Z,13.00
2018-11-05T16:10:18.114Z,12.90
2018-11-05T16:12:46.674Z,12.90
2018-11-05T16:15:15.230Z,12.80
2018-11-05T16:17:43.721Z,12.70
2018-11-05T16:20:14.392Z,12.70
2018-11-05T16:22:43.213Z,12.60
2018-11-05T16:25:11.896Z,12.50
2018-11-05T16:27:40.669Z,12.40
2018-11-05T16:30:11.486Z,12.30
2018-11-05T16:32:40.138Z,12.30
2018-11-05T16:35:08.954Z,12.30
2018-11-05T16:37:37.761Z,12.30
2018-11-05T16:40:08.967Z,12.20
2018-11-05T16:42:37.816Z,12.20
2018-11-05T16:45:07.141Z,12.10
2018-11-05T16:47:35.985Z,12.10
2018-11-05T16:50:06.975Z,12.10
2018-11-05T16:52:35.449Z,12.00
2018-11-05T16:55:03.986Z,12.00
2018-11-05T16:57:33.441Z,11.90
2018-11-05T17:00:02.038Z,11.90
2018-11-05T17:02:31.484Z,11.90
2018-11-05T17:04:59.848Z,11.80
2018-11-05T17:07:28.335Z,11.70
2018-11-05T17:09:56.928Z,11.70
2018-11-05T17:12:25.445Z,11.70
2018-11-05T17:14:54.119Z,11.70
2018-11-05T17:17:22.800Z,11.70
2018-11-05T17:19:51.374Z,11.60
2018-11-05T17:22:19.955Z,11.70
2018-11-05T17:24:48.558Z,11.60
2018-11-05T17:27:17.175Z,11.60
2018-11-05T17:29:45.737Z,11.60
2018-11-05T17:32:14.241Z,11.60
2018-11-05T17:34:42.774Z,11.80
2018-11-05T17:37:11.286Z,11.60
2018-11-05T17:39:39.794Z,11.50
2018-11-05T17:42:08.309Z,11.50
2018-11-05T17:44:36.787Z,11.50
2018-11-05T17:47:05.415Z,11.50
2018-11-05T17:49:33.927Z,11.40
2018-11-05T17:52:02.996Z,11.40
2018-11-05T17:54:31.610Z,11.30
2018-11-05T17:57:00.212Z,11.30
2018-11-05T17:59:28.707Z,11.30
2018-11-05T18:01:57.246Z,11.20
2018-11-05T18:04:25.854Z,11.20
2018-11-05T18:06:54.324Z,11.20
2018-11-05T18:09:22.859Z,11.20
2018-11-05T18:11:51.414Z,11.20
2018-11-05T18:14:19.909Z,11.20
2018-11-05T18:16:48.482Z,11.20
2018-11-05T18:19:17.071Z,11.20
2018-11-05T18:21:45.557Z,11.20
2018-11-05T18:24:14.098Z,11.10
2018-11-05T18:26:42.588Z,11.10
2018-11-05T18:29:11.117Z,11.10
2018-11-05T18:31:39.637Z,11.10
2018-11-05T18:34:08.211Z,11.10
2018-11-05T18:36:36.852Z,11.00
2018-11-05T18:39:08.447Z,11.10
2018-11-05T18:41:37.316Z,11.00
2018-11-05T18:44:06.081Z,10.90
2018-11-05T18:46:34.701Z,10.90
2018-11-05T18:49:03.241Z,10.90
2018-11-05T18:51:31.874Z,10.80
2018-11-05T18:54:00.368Z,10.80
2018-11-05T18:56:28.906Z,10.80
2018-11-05T18:58:57.395Z,10.70
2018-11-05T19:01:25.947Z,10.70
2018-11-05T19:03:54.648Z,10.70
2018-11-05T19:06:23.303Z,10.60
2018-11-05T19:08:51.824Z,10.60
2018-11-05T19:11:20.401Z,10.60
2018-11-05T19:13:49.028Z,10.60
2018-11-05T19:16:17.569Z,10.60
2018-11-05T19:18:46.103Z,10.60
2018-11-05T19:21:14.661Z,10.60
2018-11-05T19:23:43.344Z,10.60
2018-11-05T19:26:11.718Z,10.60
2018-11-05T19:28:40.340Z,10.50
2018-11-05T19:31:08.865Z,10.50
2018-11-05T19:33:37.511Z,10.50
2018-11-05T19:36:07.022Z,10.50
2018-11-05T19:38:35.556Z,10.40
2018-11-05T19:41:04.402Z,10.40
2018-11-05T19:43:33.057Z,10.40
2018-11-05T19:46:01.565Z,10.40
2018-11-05T19:48:30.125Z,10.40
2018-11-05T19:50:58.808Z,10.30
2018-11-05T19:53:27.376Z,10.30
2018-11-05T19:55:55.869Z,10.30
2018-11-05T19:58:24.361Z,10.20
2018-11-05T20:00:52.995Z,10.20
2018-11-05T20:03:21.482Z,10.10
2018-11-05T20:05:50.140Z,10.20
2018-11-05T20:08:18.544Z,10.20
2018-11-05T20:10:47.042Z,10.10
2018-11-05T20:13:15.672Z,10.10
2018-11-05T20:15:44.261Z,10.10
2018-11-05T20:18:12.881Z,10.10
2018-11-05T20:20:41.422Z,10.10
2018-11-05T20:23:09.959Z,10.00
2018-11-05T20:25:38.495Z,10.00
2018-11-05T20:28:07.084Z,10.00
2018-11-05T20:30:35.592Z,10.00
2018-11-05T20:33:05.534Z,10.00
2018-11-05T20:35:33.945Z,9.90
2018-11-05T20:38:02.514Z,9.90
2018-11-05T20:40:31.108Z,9.90
2018-11-05T20:42:59.568Z,9.90
2018-11-05T20:45:28.349Z,9.90
2018-11-05T20:47:56.854Z,9.90
2018-11-05T20:50:25.405Z,9.80
2018-11-05T20:52:54.419Z,9.90
2018-11-05T20:55:22.945Z,9.80
2018-11-05T20:57:51.457Z,9.80
2018-11-05T21:00:20.998Z,9.80
2018-11-05T21:02:49.540Z,9.70
2018-11-05T21:05:18.081Z,9.70
2018-11-05T21:07:46.603Z,9.70
2018-11-05T21:10:15.554Z,9.60
2018-11-05T21:12:44.531Z,9.60
2018-11-05T21:15:15.263Z,9.60
2018-11-05T21:17:44.716Z,9.50
2018-11-05T21:20:13.857Z,9.50
2018-11-05T21:22:46.702Z,9.50
2018-11-05T21:25:15.975Z,9.50
2018-11-05T21:27:45.043Z,9.50
2018-11-05T21:30:15.852Z,9.60
2018-11-05T21:32:44.443Z,9.60
2018-11-05T21:35:14.711Z,9.70
2018-11-05T21:37:43.496Z,9.60
2018-11-05T21:40:13.186Z,9.60
2018-11-05T21:42:41.791Z,9.60
2018-11-05T21:45:11.584Z,9.60
2018-11-05T21:47:40.680Z,9.50
2018-11-05T21:50:11.836Z,9.50
2018-11-05T21:52:41.242Z,9.60
2018-11-05T21:55:10.026Z,9.60
2018-11-05T21:57:40.664Z,9.60
2018-11-05T22:00:14.675Z,9.60
2018-11-05T22:02:48.681Z,9.60
2018-11-05T22:05:17.574Z,9.60
2018-11-05T22:07:46.654Z,9.60
2018-11-05T22:10:16.782Z,9.60
2018-11-05T22:12:47.168Z,9.60
2018-11-05T22:15:15.634Z,9.50
2018-11-05T22:17:44.192Z,9.50
2018-11-05T22:20:13.396Z,9.50
2018-11-05T22:22:41.950Z,9.40
2018-11-05T22:25:10.961Z,9.50
2018-11-05T22:27:39.635Z,9.40
2018-11-05T22:30:09.628Z,9.40
2018-11-05T22:32:38.128Z,9.40
2018-11-05T22:35:06.938Z,9.40
2018-11-05T22:37:35.441Z,9.30
2018-11-05T22:40:05.175Z,9.30
2018-11-05T22:42:34.225Z,9.30
2018-11-05T22:45:02.750Z,9.20
2018-11-05T22:47:31.290Z,9.20
2018-11-05T22:49:59.853Z,9.20
2018-11-05T22:52:28.863Z,9.20
2018-11-05T22:54:57.574Z,9.20
2018-11-05T22:57:26.323Z,9.20
2018-11-05T22:59:54.933Z,9.10
2018-11-05T23:02:23.425Z,9.10
2018-11-05T23:04:52.834Z,9.10
2018-11-05T23:07:21.325Z,9.10
2018-11-05T23:09:49.821Z,9.10
2018-11-05T23:12:18.309Z,9.10
2018-11-05T23:14:46.792Z,9.10
2018-11-05T23:17:15.590Z,9.10
2018-11-05T23:19:44.073Z,9.10
2018-11-05T23:22:12.629Z,9.20
2018-11-05T23:24:41.140Z,9.10
2018-11-05T23:27:09.625Z,9.20
2018-11-05T23:29:38.113Z,9.20
2018-11-05T23:32:06.768Z,9.20
2018-11-05T23:34:35.310Z,9.30
2018-11-05T23:37:03.783Z,9.30
2018-11-05T23:39:32.314Z,9.30
2018-11-05T23:42:00.885Z,9.40
2018-11-05T23:44:29.409Z,9.40
2018-11-05T23:46:57.897Z,9.40
2018-11-05T23:49:26.395Z,9.50
2018-11-05T23:51:54.965Z,9.50
2018-11-05T23:54:23.480Z,9.50
2018-11-05T23:56:52.557Z,9.60
2018-11-05T23:59:21.042Z,9.60
